Time;durP1;ratioP1;P1;durP2;ratioP2;P2;SDS_P1;SDS_P2;PMS_P1;PMS_P2;Temp;Humidity;BMP_temperature;BMP_pressure;BME280_temperature;BME280_humidity;BME280_pressure;Samples;Min_cycle;Max_cycle;Signal;HPM_P1;HPM_P2
2023/10/20 00:00:55;;;;;;;26.42;19.17;;;;;;;7.76;85.93;98570.09;1730730;82;25390;-59
2023/10/20 00:03:23;;;;;;;24.57;18.17;;;;;;;7.77;86.00;98569.77;1730697;82;25573;-59
2023/10/20 00:05:50;;;;;;;28.12;19.65;;;;;;;7.78;86.20;98575.39;1730772;82;26784;-62
2023/10/20 00:08:17;;;;;;;27.10;20.08;;;;;;;7.77;86.18;98575.14;1730897;82;25545;-59
2023/10/20 00:10:44;;;;;;;27.07;19.02;;;;;;;7.78;86.35;98571.34;1730766;82;28324;-60
2023/10/20 00:13:11;;;;;;;28.47;20.35;;;;;;;7.79;86.44;98566.74;1711921;82;25941;-58
2023/10/20 00:15:38;;;;;;;23.92;18.25;;;;;;;7.80;86.53;98573.14;1730755;82;25630;-59
2023/10/20 00:18:05;;;;;;;26.02;18.40;;;;;;;7.81;86.59;98571.23;1730774;82;26201;-59
2023/10/20 00:20:33;;;;;;;27.87;19.60;;;;;;;7.80;86.63;98559.69;1730810;82;25396;-60
2023/10/20 00:23:01;;;;;;;26.40;18.60;;;;;;;7.82;86.63;98556.66;1730794;82;27884;-59
2023/10/20 00:25:28;;;;;;;27.32;18.95;;;;;;;7.82;86.66;98550.71;1730697;82;25721;-59
2023/10/20 00:27:55;;;;;;;25.52;18.92;;;;;;;7.83;86.77;98542.06;1730801;82;25399;-61
2023/10/20 00:30:22;;;;;;;25.85;19.05;;;;;;;7.83;86.90;98545.56;1730716;82;25500;-60
2023/10/20 00:32:49;;;;;;;25.45;18.30;;;;;;;7.83;86.91;98544.22;1730723;82;25608;-58
2023/10/20 00:35:16;;;;;;;24.25;18.90;;;;;;;7.83;87.05;98552.30;1730761;82;27233;-60
2023/10/20 00:37:43;;;;;;;26.20;18.80;;;;;;;7.83;87.17;98550.14;1730683;82;25381;-61
2023/10/20 00:40:12;;;;;;;24.92;17.90;;;;;;;7.84;87.12;98551.16;1730837;82;25548;-59
2023/10/20 00:42:40;;;;;;;24.55;18.25;;;;;;;7.84;87.25;98545.00;1730860;82;25838;-60
2023/10/20 00:45:09;;;;;;;22.15;16.55;;;;;;;7.84;87.20;98543.08;1730813;82;25470;-60
2023/10/20 00:47:39;;;;;;;23.85;17.57;;;;;;;7.84;87.32;98545.77;1730883;82;27331;-60
2023/10/20 00:50:14;;;;;;;24.43;16.82;;;;;;;7.83;87.27;98544.76;1730715;82;25935;-62
2023/10/20 00:52:46;;;;;;;22.15;16.20;;;;;;;7.85;87.29;98550.05;1730758;82;25611;-62
2023/10/20 00:55:16;;;;;;;22.90;17.10;;;;;;;7.88;87.34;98551.84;1730266;82;25542;-62
2023/10/20 00:57:45;;;;;;;24.50;17.57;;;;;;;7.86;87.41;98547.56;1731030;82;25388;-60
2023/10/20 01:00:14;;;;;;;22.80;16.30;;;;;;;7.88;87.55;98548.58;1730711;82;27657;-62
2023/10/20 01:02:41;;;;;;;22.07;15.88;;;;;;;7.88;87.57;98545.89;1734431;82;28201;-62
2023/10/20 01:05:10;;;;;;;19.20;15.45;;;;;;;7.88;87.81;98533.78;1741428;82;25549;-61
2023/10/20 01:07:36;;;;;;;21.40;15.40;;;;;;;7.87;87.75;98529.53;1741496;82;26277;-61
2023/10/20 01:10:05;;;;;;;21.70;15.40;;;;;;;7.89;87.89;98531.89;1741431;82;25463;-61
2023/10/20 01:12:34;;;;;;;20.77;15.53;;;;;;;7.88;87.96;98524.92;1741470;82;27369;-61
2023/10/20 01:15:02;;;;;;;22.07;15.50;;;;;;;7.89;87.89;98514.39;1741571;82;25566;-62
2023/10/20 01:17:30;;;;;;;20.88;15.75;;;;;;;7.89;87.89;98510.36;1741405;82;25410;-61
2023/10/20 01:20:05;;;;;;;21.82;16.02;;;;;;;7.89;87.97;98507.66;1741359;81;26193;-62
2023/10/20 01:22:34;;;;;;;19.37;14.47;;;;;;;7.88;87.97;98494.75;1741459;81;25398;-61
2023/10/20 01:25:01;;;;;;;19.30;14.05;;;;;;;7.89;88.00;98497.67;1741356;82;27355;-61
2023/10/20 01:27:28;;;;;;;21.07;14.73;;;;;;;7.89;88.00;98503.06;1741339;82;26025;-60
2023/10/20 01:29:56;;;;;;;19.45;14.00;;;;;;;7.90;88.02;98498.45;1741431;82;25609;-62
2023/10/20 01:32:24;;;;;;;17.77;13.28;;;;;;;7.91;88.19;98491.96;1741326;82;26241;-62
2023/10/20 01:34:51;;;;;;;17.23;13.50;;;;;;;7.89;88.08;98500.37;1741444;81;25599;-62
2023/10/20 01:37:18;;;;;;;16.77;13.60;;;;;;;7.89;88.15;98499.02;1741434;82;27269;-62
2023/10/20 01:39:45;;;;;;;18.48;13.60;;;;;;;7.90;88.22;98498.45;1741336;81;25627;-62
2023/10/20 01:42:12;;;;;;;13.95;11.57;;;;;;;7.89;88.26;98498.24;1741386;82;25531;-61
2023/10/20 01:44:38;;;;;;;17.98;12.80;;;;;;;7.89;88.30;98492.29;1741376;82;25691;-62
2023/10/20 01:47:05;;;;;;;15.88;11.85;;;;;;;7.88;88.40;98489.93;1741443;82;25395;-62
2023/10/20 01:49:32;;;;;;;13.65;10.85;;;;;;;7.87;88.39;98486.46;1741465;82;27044;-62
2023/10/20 01:51:59;;;;;;;16.55;12.03;;;;;;;7.85;88.53;98477.37;1741263;82;25399;-62
2023/10/20 01:54:26;;;;;;;15.45;11.30;;;;;;;7.84;88.56;98478.48;1741343;82;25551;-61
2023/10/20 01:56:53;;;;;;;15.30;11.35;;;;;;;7.83;88.53;98480.97;1741345;82;25631;-64
2023/10/20 01:59:20;;;;;;;12.82;10.85;;;;;;;7.85;88.54;98479.28;1741415;82;25380;-63
2023/10/20 02:01:48;;;;;;;13.10;11.05;;;;;;;7.84;88.60;98480.39;1741361;82;27225;-61
2023/10/20 02:04:17;;;;;;;13.25;10.72;;;;;;;7.83;88.68;98473.42;1732239;81;25406;-63
2023/10/20 02:06:44;;;;;;;13.45;10.65;;;;;;;7.83;88.71;98474.77;1731024;82;25601;-61
2023/10/20 02:09:11;;;;;;;14.85;11.08;;;;;;;7.84;88.75;98488.47;1730753;82;26281;-61
2023/10/20 02:11:38;;;;;;;13.75;10.88;;;;;;;7.83;88.81;98489.04;1730878;82;25560;-62
2023/10/20 02:14:06;;;;;;;13.62;10.03;;;;;;;7.82;88.82;98493.41;1730871;82;27395;-61
2023/10/20 02:16:35;;;;;;;10.80;9.00;;;;;;;7.82;88.93;98494.75;1730777;82;25448;-62
2023/10/20 02:19:04;;;;;;;11.88;10.38;;;;;;;7.82;89.00;98493.41;1731008;82;25560;-62
2023/10/20 02:21:31;;;;;;;12.58;9.80;;;;;;;7.81;89.12;98484.52;1730914;82;25398;-63
2023/10/20 02:23:58;;;;;;;11.83;9.68;;;;;;;7.82;89.23;98485.33;1730888;82;25618;-64
2023/10/20 02:26:25;;;;;;;12.18;10.28;;;;;;;7.81;89.18;98491.25;1730855;82;27227;-63
2023/10/20 02:28:52;;;;;;;14.55;9.98;;;;;;;7.80;89.25;98488.36;1730793;82;25406;-64
2023/10/20 02:31:19;;;;;;;12.95;9.55;;;;;;;7.81;89.27;98474.33;1730816;82;25391;-63
2023/10/20 02:33:47;;;;;;;11.90;9.85;;;;;;;7.81;89.43;98464.91;1730780;82;26597;-63
2023/10/20 02:36:24;;;;;;;11.30;9.58;;;;;;;7.80;89.48;98461.44;1731012;82;25415;-63
2023/10/20 02:38:56;;;;;;;12.28;9.45;;;;;;;7.79;89.44;98456.39;1730847;81;28336;-63
2023/10/20 02:41:21;;;;;;;;;;;;;;;7.79;89.55;98456.39;1732216;82;25430;-64
2023/10/20 02:43:48;;;;;;;10.45;9.08;;;;;;;7.80;89.71;98451.24;1730883;82;25442;-61
2023/10/20 02:46:16;;;;;;;11.12;9.03;;;;;;;7.80;89.84;98457.97;1730805;82;26514;-61
2023/10/20 02:48:43;;;;;;;12.35;9.35;;;;;;;7.79;89.78;98451.78;1730876;82;25636;-61
2023/10/20 02:51:14;;;;;;;12.23;9.43;;;;;;;7.78;89.85;98457.50;1730800;82;27220;-60
2023/10/20 02:53:42;;;;;;;12.40;9.83;;;;;;;7.76;89.78;98458.39;1730405;82;25636;-62
2023/10/20 02:56:19;;;;;;;11.05;9.08;;;;;;;7.75;89.90;98471.08;1730838;82;25552;-62
2023/10/20 02:58:47;;;;;;;11.08;9.38;;;;;;;7.75;90.08;98464.34;1730815;82;25479;-62
2023/10/20 03:01:17;;;;;;;10.85;9.03;;;;;;;7.73;89.95;98461.21;1730848;82;25564;-61
2023/10/20 03:03:45;;;;;;;10.55;9.38;;;;;;;7.73;90.10;98459.06;1736203;82;27934;-62
2023/10/20 03:06:13;;;;;;;11.50;8.68;;;;;;;7.72;90.07;98454.25;1741237;82;25753;-63
2023/10/20 03:08:40;;;;;;;12.43;9.13;;;;;;;7.70;90.19;98448.98;1741546;82;25615;-63
2023/10/20 03:11:09;;;;;;;10.10;8.58;;;;;;;7.69;90.17;98448.18;1741265;82;26295;-63
2023/10/20 03:13:37;;;;;;;10.65;9.18;;;;;;;7.70;90.32;98447.08;1741608;82;25557;-62
2023/10/20 03:16:06;;;;;;;13.20;9.73;;;;;;;7.71;90.34;98455.92;1741582;82;27319;-62
2023/10/20 03:18:34;;;;;;;12.13;9.43;;;;;;;7.71;90.72;98457.27;1741225;82;25400;-63
2023/10/20 03:21:03;;;;;;;12.13;9.75;;;;;;;7.72;90.62;98462.89;1741374;82;25436;-62
2023/10/20 03:23:32;;;;;;;11.03;9.38;;;;;;;7.71;90.54;98460.73;1741429;82;26174;-63
2023/10/20 03:25:59;;;;;;;12.40;9.45;;;;;;;7.72;90.53;98460.20;1741358;82;25386;-62
2023/10/20 03:28:28;;;;;;;10.25;8.78;;;;;;;7.71;90.60;98466.12;1741331;81;28374;-63
2023/10/20 03:30:55;;;;;;;11.03;9.28;;;;;;;7.71;90.66;98462.66;1741512;81;25496;-62
2023/10/20 03:33:23;;;;;;;10.50;9.08;;;;;;;7.71;90.72;98462.66;1741267;82;25558;-64
2023/10/20 03:36:03;;;;;;;10.40;8.25;;;;;;;7.70;90.77;98452.45;1741274;82;25594;-63
2023/10/20 03:38:32;;;;;;;11.15;8.98;;;;;;;7.67;90.68;98447.73;1741194;82;25563;-64
2023/10/20 03:41:10;;;;;;;9.78;8.80;;;;;;;7.67;90.74;98450.42;1741468;81;27346;-63
2023/10/20 03:43:38;;;;;;;9.43;8.43;;;;;;;7.67;90.92;98455.81;1741218;82;25465;-62
2023/10/20 03:46:05;;;;;;;10.80;8.10;;;;;;;7.66;90.89;98449.66;1741314;81;25465;-64
2023/10/20 03:48:34;;;;;;;9.38;8.23;;;;;;;7.67;91.01;98453.12;1741273;82;25466;-64
2023/10/20 03:51:05;;;;;;;10.18;7.80;;;;;;;7.69;91.07;98454.91;1741324;82;25591;-63
2023/10/20 03:53:41;;;;;;;9.98;8.43;;;;;;;7.69;90.98;98446.06;1741153;82;27404;-63
2023/10/20 03:56:07;;;;;;;9.80;8.28;;;;;;;7.69;91.06;98451.44;1739369;82;25677;-63
2023/10/20 03:58:35;;;;;;;9.65;8.25;;;;;;;7.69;91.03;98444.72;1741336;82;25570;-63
2023/10/20 04:01:06;;;;;;;10.40;8.48;;;;;;;7.67;91.07;98438.32;1741367;82;25647;-63
2023/10/20 04:03:33;;;;;;;10.82;7.40;;;;;;;7.63;91.03;98443.59;1738208;80;25646;-63
2023/10/20 04:06:04;;;;;;;9.55;8.30;;;;;;;7.63;90.98;98449.53;1730792;82;27314;-62
2023/10/20 04:08:31;;;;;;;12.10;9.33;;;;;;;7.63;91.14;98440.89;1730777;82;25541;-63
2023/10/20 04:11:00;;;;;;;9.65;7.78;;;;;;;7.63;91.25;98439.55;1730931;82;25416;-63
2023/10/20 04:13:32;;;;;;;8.83;7.35;;;;;;;7.62;91.08;98432.59;1730895;82;25613;-64
2023/10/20 04:16:02;;;;;;;9.15;7.72;;;;;;;7.62;91.24;98429.12;1730862;82;25560;-63
2023/10/20 04:18:32;;;;;;;9.55;6.75;;;;;;;7.61;91.22;98430.23;1729841;82;27327;-64
2023/10/20 04:20:59;;;;;;;6.53;5.90;;;;;;;7.59;91.15;98424.40;1730690;82;25449;-66
2023/10/20 04:23:26;;;;;;;7.40;6.35;;;;;;;7.58;91.23;98422.84;1730818;82;25563;-65
2023/10/20 04:25:53;;;;;;;6.97;6.28;;;;;;;7.56;91.24;98430.44;1730746;82;25976;-65
2023/10/20 04:59:05;;;;;;;3.95;3.65;;;;;;;7.34;90.90;98450.45;1730982;82;27318;-63
2023/10/20 05:01:39;;;;;;;3.25;3.02;;;;;;;7.29;90.65;98451.47;1730075;82;25652;-62
2023/10/20 05:03:58;;;;;;;2.98;2.70;;;;;;;7.24;90.52;98455.72;1732525;82;25802;-61
2023/10/20 05:06:40;;;;;;;3.12;2.83;;;;;;;7.18;90.53;98452.99;1741371;81;26297;-63
2023/10/20 05:08:55;;;;;;;3.30;2.98;;;;;;;7.15;90.63;98457.14;1737889;82;25444;-63
2023/10/20 05:11:22;;;;;;;3.08;2.87;;;;;;;7.13;90.81;98465.30;1741454;82;27330;-62
2023/10/20 05:13:48;;;;;;;3.33;3.02;;;;;;;7.09;91.02;98463.83;1740965;82;25639;-62
2023/10/20 05:16:15;;;;;;;2.85;2.65;;;;;;;7.08;90.94;98472.46;1740655;82;25693;-63
2023/10/20 05:18:42;;;;;;;5.40;3.15;;;;;;;7.05;90.94;98473.12;1740603;81;26613;-62
2023/10/20 05:21:12;;;;;;;2.75;2.45;;;;;;;7.01;90.76;98481.59;1740640;81;25968;-63
2023/10/20 05:23:39;;;;;;;2.75;2.55;;;;;;;6.97;90.83;98487.98;1740886;82;27332;-65
2023/10/20 05:26:11;;;;;;;2.80;2.60;;;;;;;6.92;90.94;98466.89;1740778;82;26035;-64
2023/10/20 05:28:38;;;;;;;3.10;2.80;;;;;;;6.92;90.93;98454.79;1740777;82;25681;-64
2023/10/20 05:31:05;;;;;;;2.95;2.65;;;;;;;6.90;91.00;98446.84;1741350;81;26400;-63
2023/10/20 05:33:32;;;;;;;3.15;2.95;;;;;;;6.89;91.09;98456.01;1741401;82;25623;-64
2023/10/20 05:36:04;;;;;;;3.00;2.70;;;;;;;6.89;91.14;98464.08;1741473;82;27423;-64
2023/10/20 05:38:31;;;;;;;3.12;2.83;;;;;;;6.86;91.10;98468.75;1741312;82;25607;-64
2023/10/20 05:41:00;;;;;;;3.27;2.98;;;;;;;6.83;91.05;98476.93;1741389;82;25377;-64
2023/10/20 05:43:29;;;;;;;3.27;2.98;;;;;;;6.81;91.08;98479.17;1741492;82;25665;-65
2023/10/20 05:45:56;;;;;;;3.00;2.72;;;;;;;6.81;91.21;98481.05;1741542;81;25540;-65
2023/10/20 05:48:24;;;;;;;3.45;2.60;;;;;;;6.78;91.06;98484.41;1741361;82;27259;-64
2023/10/20 05:50:58;;;;;;;2.75;2.55;;;;;;;6.74;91.06;98478.88;1741299;82;25378;-64
2023/10/20 05:53:26;;;;;;;2.98;2.67;;;;;;;6.69;91.13;98478.54;1741347;82;25527;-64
2023/10/20 05:55:53;;;;;;;3.37;3.08;;;;;;;6.68;91.37;98471.58;1741331;82;25632;-64
2023/10/20 05:58:22;;;;;;;3.55;3.20;;;;;;;6.68;91.53;98470.23;1741405;82;25474;-64
2023/10/20 06:00:48;;;;;;;4.25;3.55;;;;;;;6.68;91.68;98470.23;1741355;82;28030;-65
2023/10/20 06:03:15;;;;;;;5.60;3.00;;;;;;;6.69;91.72;98459.73;1740912;82;25690;-64
2023/10/20 06:05:44;;;;;;;3.85;3.05;;;;;;;6.70;91.82;98471.25;1731673;82;25476;-64
2023/10/20 06:08:11;;;;;;;3.50;3.20;;;;;;;6.68;91.73;98475.61;1730848;82;26555;-65
2023/10/20 06:10:38;;;;;;;4.03;3.37;;;;;;;6.69;91.79;98471.82;1730915;82;25544;-65
2023/10/20 06:13:06;;;;;;;3.87;3.17;;;;;;;6.69;91.72;98479.08;1730848;82;27207;-64
2023/10/20 06:15:35;;;;;;;3.37;3.00;;;;;;;6.68;91.75;98490.39;1730803;81;25843;-66
2023/10/20 06:18:02;;;;;;;3.22;2.85;;;;;;;6.68;91.77;98496.33;1731125;82;25547;-64
2023/10/20 06:20:29;;;;;;;4.58;3.50;;;;;;;6.69;91.90;98513.47;1730783;82;25675;-65
2023/10/20 06:22:55;;;;;;;4.03;3.20;;;;;;;6.70;91.94;98520.96;1730890;82;25590;-64
2023/10/20 06:25:22;;;;;;;3.83;3.12;;;;;;;6.68;91.82;98514.57;1730874;82;27318;-64
2023/10/20 06:27:48;;;;;;;3.25;2.95;;;;;;;6.68;91.78;98523.19;1730764;82;25612;-65
2023/10/20 06:30:17;;;;;;;3.10;2.80;;;;;;;6.68;91.99;98519.94;1730877;82;25607;-65
2023/10/20 06:32:56;;;;;;;5.37;3.10;;;;;;;6.67;91.94;98529.10;1730435;82;25912;-65
2023/10/20 06:35:17;;;;;;;3.85;3.20;;;;;;;6.69;92.10;98522.87;1729873;82;25414;-64
2023/10/20 06:38:04;;;;;;;4.33;3.50;;;;;;;6.70;92.08;98508.88;1730864;81;27669;-65
2023/10/20 06:40:24;;;;;;;4.40;3.30;;;;;;;6.70;92.26;98494.88;1728975;82;25401;-64
2023/10/20 06:42:50;;;;;;;3.75;3.08;;;;;;;6.72;92.67;98494.02;1730890;82;25399;-64
2023/10/20 06:45:16;;;;;;;4.00;3.60;;;;;;;6.72;92.48;98483.27;1730824;82;26213;-65
2023/10/20 06:47:43;;;;;;;4.62;3.58;;;;;;;6.72;92.61;98485.95;1730894;82;25416;-64
2023/10/20 06:50:11;;;;;;;4.97;3.60;;;;;;;6.74;92.59;98489.63;1730862;82;26677;-65
2023/10/20 06:52:38;;;;;;;4.10;3.47;;;;;;;6.75;92.63;98488.52;1730723;82;25597;-65
2023/10/20 06:55:07;;;;;;;4.53;3.62;;;;;;;6.76;92.71;98483.39;1730823;82;25596;-65
2023/10/20 06:57:34;;;;;;;7.40;4.20;;;;;;;6.75;92.36;98482.38;1730901;82;25795;-65
2023/10/20 07:00:02;;;;;;;6.05;3.33;;;;;;;6.73;92.42;98484.05;1730867;82;25636;-66
2023/10/20 07:02:30;;;;;;;4.05;3.45;;;;;;;6.73;92.53;98485.38;1731036;82;27317;-66
2023/10/20 07:04:57;;;;;;;5.20;4.70;;;;;;;6.72;92.64;98475.73;1730708;81;25912;-65
2023/10/20 07:07:25;;;;;;;5.37;4.85;;;;;;;6.72;92.54;98483.27;1730881;82;25629;-65
2023/10/20 07:09:52;;;;;;;4.00;3.60;;;;;;;6.75;92.70;98491.78;1730908;82;25633;-65
2023/10/20 07:12:19;;;;;;;4.97;3.98;;;;;;;6.76;92.79;98486.62;1730878;82;25631;-64
2023/10/20 07:14:45;;;;;;;4.10;3.70;;;;;;;6.76;92.82;98482.59;1730864;82;28387;-65
2023/10/20 07:17:12;;;;;;;4.85;3.60;;;;;;;6.78;92.96;98479.04;1730725;82;25606;-63
2023/10/20 07:19:39;;;;;;;6.87;3.95;;;;;;;6.81;93.18;98472.45;1730848;82;25560;-64
2023/10/20 07:22:07;;;;;;;5.30;3.80;;;;;;;6.84;93.31;98461.58;1730847;82;26607;-65
2023/10/20 07:24:33;;;;;;;4.78;3.55;;;;;;;6.85;93.12;98459.14;1730859;82;25467;-65
2023/10/20 07:27:01;;;;;;;6.00;3.67;;;;;;;6.87;93.30;98464.97;1730853;82;27313;-65
2023/10/20 07:29:29;;;;;;;6.15;4.17;;;;;;;6.88;93.25;98470.58;1730772;82;25652;-64
2023/10/20 07:31:56;;;;;;;5.33;3.72;;;;;;;6.89;93.08;98480.97;1730778;82;25551;-65
2023/10/20 07:34:23;;;;;;;7.47;4.17;;;;;;;6.92;93.28;98488.95;1730851;82;25633;-65
2023/10/20 07:36:49;;;;;;;6.05;4.15;;;;;;;6.93;93.19;98498.61;1730838;82;25388;-64
2023/10/20 07:39:19;;;;;;;5.35;3.95;;;;;;;6.94;93.16;98500.16;1730834;82;27913;-64
2023/10/20 07:41:47;;;;;;;5.55;3.87;;;;;;;6.92;93.00;98501.05;1730784;82;25631;-65
2023/10/20 07:44:18;;;;;;;5.60;4.40;;;;;;;6.94;93.13;98503.41;1730820;82;25587;-65
2023/10/20 07:46:45;;;;;;;7.28;4.42;;;;;;;6.96;93.38;98505.20;1730841;82;25621;-65
2023/10/20 07:49:13;;;;;;;6.40;4.22;;;;;;;6.98;93.32;98501.09;1730860;82;25589;-65
2023/10/20 07:51:40;;;;;;;6.12;4.42;;;;;;;6.99;93.31;98499.18;1730826;82;28069;-64
2023/10/20 07:54:09;;;;;;;5.60;3.80;;;;;;;7.00;93.51;98494.02;1730725;82;25390;-65
2023/10/20 07:56:38;;;;;;;5.80;4.28;;;;;;;7.02;93.46;98489.90;1730981;82;25415;-65
2023/10/20 07:59:07;;;;;;;6.65;4.28;;;;;;;7.01;93.32;98495.03;1730959;82;26214;-65
2023/10/20 08:01:34;;;;;;;6.80;4.55;;;;;;;7.03;93.37;98485.30;1730689;82;25447;-65
2023/10/20 08:04:02;;;;;;;10.95;4.87;;;;;;;7.05;93.49;98477.72;1730802;82;27334;-65
2023/10/20 08:06:29;;;;;;;7.30;5.03;;;;;;;7.08;93.88;98476.50;1730676;82;26037;-66
2023/10/20 08:08:55;;;;;;;8.98;5.83;;;;;;;7.09;93.60;98478.05;1730858;82;25406;-66
2023/10/20 08:11:22;;;;;;;9.53;5.05;;;;;;;7.10;93.56;98470.80;1730781;82;26625;-65
2023/10/20 08:13:52;;;;;;;7.67;4.92;;;;;;;7.13;93.70;98473.37;1730808;82;25625;-65
2023/10/20 08:16:23;;;;;;;10.68;5.55;;;;;;;7.09;93.53;98465.17;1730835;82;27212;-65
2023/10/20 08:18:51;;;;;;;9.75;5.42;;;;;;;7.09;93.47;98462.48;1730771;82;25563;-64
2023/10/20 08:21:19;;;;;;;9.53;5.22;;;;;;;7.10;93.68;98474.83;1730947;82;25445;-65
2023/10/20 08:23:46;;;;;;;10.30;5.40;;;;;;;7.13;93.69;98488.93;1730898;82;25577;-64
2023/10/20 08:26:19;;;;;;;9.40;5.25;;;;;;;7.14;93.64;98493.20;1730834;82;25571;-65
2023/10/20 08:28:46;;;;;;;9.60;5.28;;;;;;;7.15;93.41;98503.39;1730830;82;27330;-64
2023/10/20 08:31:21;;;;;;;8.18;5.35;;;;;;;7.11;93.24;98481.75;1730699;82;25565;-65
2023/10/20 08:33:44;;;;;;;8.88;5.22;;;;;;;7.11;93.35;98480.41;1728506;82;25406;-64
2023/10/20 08:36:15;;;;;;;9.53;5.15;;;;;;;7.09;93.41;98478.05;1730726;82;25708;-65
2023/10/20 08:38:45;;;;;;;8.33;5.15;;;;;;;7.14;93.59;98491.86;1730861;82;25651;-64
2023/10/20 08:41:14;;;;;;;11.55;6.12;;;;;;;7.18;93.83;98496.80;1730789;82;27305;-65
2023/10/20 08:43:44;;;;;;;12.65;6.08;;;;;;;7.22;93.80;98486.16;1730829;82;25386;-65
2023/10/20 08:46:14;;;;;;;15.40;7.42;;;;;;;7.19;93.51;98491.66;1730798;82;25442;-65
2023/10/20 08:48:45;;;;;;;11.88;6.62;;;;;;;7.23;93.64;98486.40;1730745;82;25675;-66
2023/10/20 08:51:15;;;;;;;14.23;6.70;;;;;;;7.23;93.64;98489.87;1730075;82;25648;-64
2023/10/20 08:53:43;;;;;;;12.00;6.70;;;;;;;7.24;93.48;98492.02;1730801;82;27391;-65
2023/10/20 08:56:12;;;;;;;12.85;6.80;;;;;;;7.24;93.17;98491.45;1730695;82;25567;-65
2023/10/20 08:58:40;;;;;;;11.63;6.37;;;;;;;7.25;93.33;98488.20;1712105;82;25402;-65
2023/10/20 09:01:07;;;;;;;13.85;8.15;;;;;;;7.24;93.08;98486.64;1730749;82;26197;-65
2023/10/20 09:03:42;;;;;;;23.70;11.33;;;;;;;7.22;93.45;98474.87;1730817;82;25399;-65
2023/10/20 09:06:14;;;;;;;19.85;10.48;;;;;;;7.22;93.35;98471.38;1730730;82;28019;-64
2023/10/20 09:08:45;;;;;;;16.30;10.05;;;;;;;7.21;93.24;98475.97;1730696;82;25580;-65
2023/10/20 09:11:14;;;;;;;21.45;10.03;;;;;;;7.23;93.45;98467.58;1730809;82;25635;-65
2023/10/20 09:13:44;;;;;;;14.03;8.33;;;;;;;7.23;93.50;98467.58;1730711;82;26189;-65
2023/10/20 09:16:13;;;;;;;12.37;7.17;;;;;;;7.25;93.73;98459.42;1730873;82;25619;-65
2023/10/20 09:18:53;;;;;;;14.98;8.73;;;;;;;7.28;93.83;98464.11;1730987;82;27179;-66
2023/10/20 09:21:25;;;;;;;13.55;8.75;;;;;;;7.29;93.72;98460.31;1730909;82;25946;-65
2023/10/20 09:24:03;;;;;;;11.85;7.80;;;;;;;7.33;93.82;98461.00;1731004;81;25387;-66
2023/10/20 09:26:38;;;;;;;11.33;7.10;;;;;;;7.38;94.02;98461.58;1730994;82;25653;-65
2023/10/20 09:29:07;;;;;;;13.03;6.97;;;;;;;7.38;93.63;98452.16;1731060;82;25443;-66
2023/10/20 09:31:36;;;;;;;12.50;6.60;;;;;;;7.36;93.27;98444.21;1731028;82;27341;-65
2023/10/20 09:34:06;;;;;;;14.07;6.97;;;;;;;7.37;93.29;98436.34;1730797;82;25624;-66
2023/10/20 09:36:34;;;;;;;11.75;6.90;;;;;;;7.37;93.29;98447.11;1730980;82;25569;-65
2023/10/20 09:39:03;;;;;;;15.93;7.65;;;;;;;7.36;93.35;98449.02;1730937;82;25747;-65
2023/10/20 09:41:30;;;;;;;11.50;7.70;;;;;;;7.37;93.37;98452.48;1731074;82;25471;-65
2023/10/20 09:44:06;;;;;;;13.03;7.22;;;;;;;7.40;93.49;98448.57;1730915;82;28212;-65
2023/10/20 09:46:57;;;;;;;10.45;6.47;;;;;;;7.39;93.43;98445.67;1730865;82;25609;-64
2023/10/20 09:49:27;;;;;;;13.05;6.90;;;;;;;7.34;92.88;98455.84;1730939;82;25414;-65
2023/10/20 09:51:58;;;;;;;12.30;7.28;;;;;;;7.32;92.83;98447.31;1730885;82;25633;-64
2023/10/20 09:54:31;;;;;;;10.35;6.58;;;;;;;7.31;92.79;98462.68;1730965;82;25446;-64
2023/10/20 09:56:59;;;;;;;12.45;6.87;;;;;;;7.32;93.00;98462.91;1730923;81;27330;-65
2023/10/20 09:59:27;;;;;;;9.83;6.50;;;;;;;7.29;92.87;98453.59;1730782;82;25555;-64
2023/10/20 10:01:57;;;;;;;15.95;7.15;;;;;;;7.27;92.86;98446.42;1730802;82;25470;-64
2023/10/20 10:04:29;;;;;;;;;;;;;;;7.29;93.13;98443.41;1733369;82;25612;-63
2023/10/20 10:07:00;;;;;;;12.50;6.55;;;;;;;7.27;92.98;98434.32;1740015;82;25435;-64
2023/10/20 10:09:40;;;;;;;12.55;6.72;;;;;;;7.23;92.93;98425.89;1740226;82;27423;-64
2023/10/20 10:12:15;;;;;;;11.88;7.10;;;;;;;7.22;92.92;98424.31;1738579;82;25674;-65
2023/10/20 10:14:42;;;;;;;12.03;6.83;;;;;;;7.22;93.35;98406.30;1740176;82;25712;-66
2023/10/20 10:17:11;;;;;;;12.05;7.20;;;;;;;7.25;93.31;98407.52;1741322;82;26629;-66
2023/10/20 10:19:55;;;;;;;13.55;7.10;;;;;;;7.26;93.46;98409.88;1741533;82;25623;-66
2023/10/20 10:22:26;;;;;;;9.65;7.00;;;;;;;7.27;93.20;98400.70;1739405;82;27384;-65
2023/10/20 10:24:56;;;;;;;12.47;6.78;;;;;;;7.27;93.00;98396.67;1741055;82;25556;-66
2023/10/20 10:27:28;;;;;;;;;;;;;;;7.26;92.92;98388.94;1743986;81;25406;-65
2023/10/20 10:30:05;;;;;;;12.50;7.12;;;;;;;7.26;92.81;98403.72;1741322;82;25642;-65
2023/10/20 10:32:36;;;;;;;10.20;7.05;;;;;;;7.22;92.56;98404.95;1741086;82;25551;-65
2023/10/20 10:35:05;;;;;;;13.50;6.47;;;;;;;7.19;92.46;98404.83;1741316;82;28355;-65
2023/10/20 10:37:37;;;;;;;15.05;7.58;;;;;;;7.16;92.46;98400.89;1741397;82;25597;-64
2023/10/20 10:40:12;;;;;;;13.45;8.00;;;;;;;7.16;92.63;98404.15;1741390;82;25405;-65
2023/10/20 10:42:49;;;;;;;13.93;8.38;;;;;;;7.14;92.68;98401.78;1741407;82;26204;-66
2023/10/20 10:45:27;;;;;;;14.87;9.20;;;;;;;7.13;92.69;98404.23;1741367;82;25465;-65
2023/10/20 10:48:10;;;;;;;15.23;9.35;;;;;;;7.16;92.88;98409.52;1741048;82;27350;-65
2023/10/20 10:50:44;;;;;;;13.10;7.30;;;;;;;7.16;92.93;98402.80;1741276;82;25629;-65
2023/10/20 10:53:13;;;;;;;15.00;8.03;;;;;;;7.15;93.09;98393.96;1741306;82;25651;-64
2023/10/20 10:55:42;;;;;;;14.23;7.78;;;;;;;7.19;93.04;98394.08;1741371;81;25611;-64
2023/10/20 10:58:15;;;;;;;9.95;7.10;;;;;;;7.19;93.06;98385.44;1741499;82;25567;-64
2023/10/20 11:00:44;;;;;;;11.35;7.20;;;;;;;7.14;92.61;98382.97;1741320;82;27687;-61
2023/10/20 11:03:13;;;;;;;;;;;;;;;7.14;92.60;98388.91;1743804;82;25395;-59
2023/10/20 11:05:42;;;;;;;17.07;9.43;;;;;;;7.15;92.70;98389.12;1738711;82;25616;-60
2023/10/20 11:08:10;;;;;;;12.82;7.90;;;;;;;7.15;93.04;98387.23;1730840;82;25613;-62
2023/10/20 11:10:45;;;;;;;14.45;8.45;;;;;;;7.18;93.28;98386.55;1730846;82;25629;-61
2023/10/20 11:13:15;;;;;;;13.08;8.00;;;;;;;7.22;93.19;98393.39;1728947;82;27526;-62
2023/10/20 11:15:41;;;;;;;14.78;7.40;;;;;;;7.17;92.68;98393.06;1730551;82;26152;-58
2023/10/20 11:18:14;;;;;;;15.15;7.20;;;;;;;7.15;92.26;98389.12;1730817;82;25451;-63
2023/10/20 11:20:43;;;;;;;10.63;7.50;;;;;;;7.13;92.22;98398.86;1729685;82;25634;-62
2023/10/20 11:23:14;;;;;;;15.98;8.00;;;;;;;7.09;91.96;98392.02;1730880;82;25631;-63
2023/10/20 11:25:42;;;;;;;13.03;7.15;;;;;;;7.07;92.62;98388.88;1730980;82;27672;-61
2023/10/20 11:28:10;;;;;;;13.80;8.58;;;;;;;7.09;92.62;98395.27;1730929;82;25611;-62
2023/10/20 11:30:41;;;;;;;13.53;7.70;;;;;;;7.10;92.66;98403.02;1730815;82;25584;-60
2023/10/20 11:33:12;;;;;;;13.72;6.80;;;;;;;7.13;92.76;98402.89;1730633;82;26396;-61
2023/10/20 11:35:40;;;;;;;12.68;7.60;;;;;;;7.14;92.62;98399.66;1730869;82;25601;-60
2023/10/20 11:38:06;;;;;;;14.15;7.62;;;;;;;7.16;92.57;98410.30;1730823;82;27421;-61
2023/10/20 11:40:32;;;;;;;12.23;8.53;;;;;;;7.11;92.14;98409.94;1730795;82;25616;-60
2023/10/20 11:42:59;;;;;;;15.72;7.87;;;;;;;7.09;92.11;98420.81;1730816;82;25582;-61
2023/10/20 11:45:26;;;;;;;13.10;7.90;;;;;;;7.13;92.45;98435.72;1730758;82;25668;-61
2023/10/20 11:47:52;;;;;;;12.58;7.70;;;;;;;7.14;92.60;98435.39;1730850;82;25567;-61
2023/10/20 11:50:19;;;;;;;14.45;8.25;;;;;;;7.14;92.29;98425.20;1730805;82;27667;-59
2023/10/20 11:52:47;;;;;;;13.50;7.65;;;;;;;7.10;92.11;98425.09;1730717;82;25450;-59
2023/10/20 11:55:14;;;;;;;13.13;8.33;;;;;;;7.07;92.00;98432.47;1730779;82;25532;-61
2023/10/20 11:57:42;;;;;;;15.13;8.83;;;;;;;7.03;91.81;98437.72;1730770;82;26565;-61
2023/10/20 12:00:13;;;;;;;14.93;8.68;;;;;;;7.01;91.96;98437.81;1730825;82;25412;-62
2023/10/20 12:02:41;;;;;;;16.77;8.33;;;;;;;6.99;92.02;98435.45;1730867;81;27334;-61
2023/10/20 12:05:10;;;;;;;19.02;8.90;;;;;;;6.96;91.90;98432.06;1730704;82;25687;-61
2023/10/20 12:07:38;;;;;;;15.55;9.28;;;;;;;6.92;91.79;98425.79;1730731;82;25474;-59
2023/10/20 12:10:07;;;;;;;14.30;8.53;;;;;;;6.91;92.18;98436.30;1730736;82;25605;-61
2023/10/20 12:12:35;;;;;;;13.98;9.33;;;;;;;6.90;92.19;98435.52;1730951;82;32312;-60
2023/10/20 12:15:03;;;;;;;17.10;9.40;;;;;;;6.92;92.34;98437.32;1730755;82;27941;-61